sensor_id;sensor_type;location;lat;lon;timestamp;P1;durP1;ratioP1;P2;durP2;ratioP2
1410;SDS011;700;51.906;8.404;2023-03-31T00:02:16;3.23;;;1.40;;
1410;SDS011;700;51.906;8.404;2023-03-31T00:07:22;4.70;;;1.93;;
1410;SDS011;700;51.906;8.404;2023-03-31T00:12:22;3.10;;;1.93;;
1410;SDS011;700;51.906;8.404;2023-03-31T00:17:23;3.70;;;2.20;;
1410;SDS011;700;51.906;8.404;2023-03-31T00:22:26;4.47;;;1.90;;
1410;SDS011;700;51.906;8.404;2023-03-31T00:27:29;5.93;;;2.20;;
1410;SDS011;700;51.906;8.404;2023-03-31T00:32:30;7.77;;;2.20;;
1410;SDS011;700;51.906;8.404;2023-03-31T00:37:32;6.17;;;2.27;;
1410;SDS011;700;51.906;8.404;2023-03-31T00:42:32;7.33;;;2.97;;
1410;SDS011;700;51.906;8.404;2023-03-31T00:47:40;4.90;;;2.47;;
1410;SDS011;700;51.906;8.404;2023-03-31T00:52:56;4.40;;;2.20;;
1410;SDS011;700;51.906;8.404;2023-03-31T00:58:01;6.20;;;2.83;;
1410;SDS011;700;51.906;8.404;2023-03-31T01:03:04;8.17;;;2.77;;
1410;SDS011;700;51.906;8.404;2023-03-31T01:08:06;4.13;;;1.97;;
1410;SDS011;700;51.906;8.404;2023-03-31T01:13:10;7.03;;;2.73;;
1410;SDS011;700;51.906;8.404;2023-03-31T01:18:12;5.83;;;2.70;;
1410;SDS011;700;51.906;8.404;2023-03-31T01:44:13;6.50;;;2.90;;
1410;SDS011;700;51.906;8.404;2023-03-31T01:49:50;8.13;;;3.37;;
1410;SDS011;700;51.906;8.404;2023-03-31T01:55:10;13.53;;;3.20;;
1410;SDS011;700;51.906;8.404;2023-03-31T02:00:35;6.50;;;3.07;;
1410;SDS011;700;51.906;8.404;2023-03-31T02:05:46;7.57;;;3.27;;
1410;SDS011;700;51.906;8.404;2023-03-31T02:10:55;7.00;;;2.63;;
1410;SDS011;700;51.906;8.404;2023-03-31T02:16:01;7.10;;;2.37;;
1410;SDS011;700;51.906;8.404;2023-03-31T02:21:07;8.03;;;2.80;;
1410;SDS011;700;51.906;8.404;2023-03-31T02:26:14;5.37;;;2.47;;
1410;SDS011;700;51.906;8.404;2023-03-31T02:36:32;8.10;;;2.67;;
1410;SDS011;700;51.906;8.404;2023-03-31T02:41:34;7.23;;;1.93;;
1410;SDS011;700;51.906;8.404;2023-03-31T02:46:37;8.67;;;2.23;;
1410;SDS011;700;51.906;8.404;2023-03-31T03:13:27;8.33;;;2.20;;
1410;SDS011;700;51.906;8.404;2023-03-31T03:18:51;7.30;;;2.13;;
1410;SDS011;700;51.906;8.404;2023-03-31T03:24:01;6.43;;;2.10;;
1410;SDS011;700;51.906;8.404;2023-03-31T03:29:02;4.10;;;1.40;;
1410;SDS011;700;51.906;8.404;2023-03-31T03:34:03;4.37;;;2.30;;
1410;SDS011;700;51.906;8.404;2023-03-31T03:39:08;10.07;;;2.90;;
1410;SDS011;700;51.906;8.404;2023-03-31T03:44:11;7.03;;;3.00;;
1410;SDS011;700;51.906;8.404;2023-03-31T03:49:11;8.33;;;2.13;;
1410;SDS011;700;51.906;8.404;2023-03-31T03:54:12;4.20;;;2.87;;
1410;SDS011;700;51.906;8.404;2023-03-31T03:59:13;4.70;;;1.90;;
1410;SDS011;700;51.906;8.404;2023-03-31T04:04:14;6.93;;;2.30;;
1410;SDS011;700;51.906;8.404;2023-03-31T04:09:19;7.93;;;2.03;;
1410;SDS011;700;51.906;8.404;2023-03-31T04:14:20;4.20;;;1.97;;
1410;SDS011;700;51.906;8.404;2023-03-31T04:19:25;9.33;;;1.90;;
1410;SDS011;700;51.906;8.404;2023-03-31T04:24:26;4.50;;;1.90;;
1410;SDS011;700;51.906;8.404;2023-03-31T04:29:40;3.60;;;2.00;;
1410;SDS011;700;51.906;8.404;2023-03-31T04:34:44;4.83;;;2.30;;
1410;SDS011;700;51.906;8.404;2023-03-31T04:39:45;10.40;;;2.70;;
1410;SDS011;700;51.906;8.404;2023-03-31T04:44:49;9.07;;;2.77;;
1410;SDS011;700;51.906;8.404;2023-03-31T04:49:50;8.43;;;2.43;;
1410;SDS011;700;51.906;8.404;2023-03-31T04:54:50;6.30;;;2.97;;
1410;SDS011;700;51.906;8.404;2023-03-31T04:59:53;9.17;;;2.93;;
1410;SDS011;700;51.906;8.404;2023-03-31T05:04:54;4.90;;;2.50;;
1410;SDS011;700;51.906;8.404;2023-03-31T05:09:56;8.50;;;3.20;;
1410;SDS011;700;51.906;8.404;2023-03-31T05:14:57;7.53;;;2.40;;
1410;SDS011;700;51.906;8.404;2023-03-31T05:19:58;4.80;;;2.10;;
1410;SDS011;700;51.906;8.404;2023-03-31T05:24:59;5.53;;;2.60;;
1410;SDS011;700;51.906;8.404;2023-03-31T05:29:59;5.77;;;2.33;;
1410;SDS011;700;51.906;8.404;2023-03-31T05:35:01;4.53;;;2.70;;
1410;SDS011;700;51.906;8.404;2023-03-31T05:40:01;4.27;;;2.27;;
1410;SDS011;700;51.906;8.404;2023-03-31T05:45:04;5.33;;;2.90;;
1410;SDS011;700;51.906;8.404;2023-03-31T05:50:07;8.80;;;2.90;;
1410;SDS011;700;51.906;8.404;2023-03-31T05:55:08;10.30;;;2.30;;
1410;SDS011;700;51.906;8.404;2023-03-31T06:00:09;6.00;;;2.60;;
1410;SDS011;700;51.906;8.404;2023-03-31T06:05:13;4.03;;;2.00;;
1410;SDS011;700;51.906;8.404;2023-03-31T06:10:14;4.93;;;1.97;;
1410;SDS011;700;51.906;8.404;2023-03-31T06:15:15;6.03;;;2.40;;
1410;SDS011;700;51.906;8.404;2023-03-31T06:20:20;7.23;;;2.50;;
1410;SDS011;700;51.906;8.404;2023-03-31T06:25:23;5.03;;;2.20;;
1410;SDS011;700;51.906;8.404;2023-03-31T06:30:28;3.50;;;1.90;;
1410;SDS011;700;51.906;8.404;2023-03-31T06:35:29;4.70;;;1.80;;
1410;SDS011;700;51.906;8.404;2023-03-31T06:40:30;5.30;;;2.60;;
1410;SDS011;700;51.906;8.404;2023-03-31T06:45:33;4.50;;;2.10;;
1410;SDS011;700;51.906;8.404;2023-03-31T06:50:38;7.67;;;2.13;;
1410;SDS011;700;51.906;8.404;2023-03-31T06:55:40;5.50;;;2.87;;
1410;SDS011;700;51.906;8.404;2023-03-31T07:00:41;7.83;;;2.17;;
1410;SDS011;700;51.906;8.404;2023-03-31T07:05:52;6.07;;;2.58;;
1410;SDS011;700;51.906;8.404;2023-03-31T07:10:57;4.93;;;2.10;;
1410;SDS011;700;51.906;8.404;2023-03-31T07:15:59;4.93;;;2.17;;
1410;SDS011;700;51.906;8.404;2023-03-31T07:21:04;4.17;;;2.27;;
1410;SDS011;700;51.906;8.404;2023-03-31T07:26:07;5.13;;;1.70;;
1410;SDS011;700;51.906;8.404;2023-03-31T07:31:11;6.60;;;2.07;;
1410;SDS011;700;51.906;8.404;2023-03-31T07:36:12;5.30;;;2.13;;
1410;SDS011;700;51.906;8.404;2023-03-31T07:41:14;5.93;;;2.40;;
1410;SDS011;700;51.906;8.404;2023-03-31T07:46:22;3.43;;;1.70;;
1410;SDS011;700;51.906;8.404;2023-03-31T07:51:27;5.27;;;1.70;;
1410;SDS011;700;51.906;8.404;2023-03-31T07:56:28;7.33;;;1.87;;
1410;SDS011;700;51.906;8.404;2023-03-31T08:01:31;4.30;;;2.40;;
1410;SDS011;700;51.906;8.404;2023-03-31T08:06:32;3.43;;;1.53;;
1410;SDS011;700;51.906;8.404;2023-03-31T08:11:38;2.90;;;1.40;;
1410;SDS011;700;51.906;8.404;2023-03-31T08:16:38;4.07;;;1.90;;
1410;SDS011;700;51.906;8.404;2023-03-31T08:21:41;1.83;;;1.27;;
1410;SDS011;700;51.906;8.404;2023-03-31T08:26:42;2.10;;;1.30;;
1410;SDS011;700;51.906;8.404;2023-03-31T08:31:45;3.90;;;1.80;;
1410;SDS011;700;51.906;8.404;2023-03-31T08:36:46;2.53;;;1.20;;
1410;SDS011;700;51.906;8.404;2023-03-31T08:41:53;3.10;;;1.27;;
1410;SDS011;700;51.906;8.404;2023-03-31T08:47:17;2.43;;;1.17;;
1410;SDS011;700;51.906;8.404;2023-03-31T08:52:22;2.90;;;1.30;;
1410;SDS011;700;51.906;8.404;2023-03-31T08:57:30;2.67;;;1.10;;
1410;SDS011;700;51.906;8.404;2023-03-31T09:07:56;3.77;;;1.80;;
1410;SDS011;700;51.906;8.404;2023-03-31T09:13:38;4.57;;;1.80;;
1410;SDS011;700;51.906;8.404;2023-03-31T09:18:41;3.03;;;1.33;;
1410;SDS011;700;51.906;8.404;2023-03-31T09:23:58;4.43;;;2.17;;
1410;SDS011;700;51.906;8.404;2023-03-31T09:29:14;2.63;;;1.70;;
1410;SDS011;700;51.906;8.404;2023-03-31T09:34:27;4.37;;;2.03;;
1410;SDS011;700;51.906;8.404;2023-03-31T09:39:35;3.70;;;1.50;;
1410;SDS011;700;51.906;8.404;2023-03-31T09:49:49;4.40;;;1.80;;
1410;SDS011;700;51.906;8.404;2023-03-31T09:54:52;3.07;;;1.70;;
1410;SDS011;700;51.906;8.404;2023-03-31T10:05:18;5.27;;;1.50;;
1410;SDS011;700;51.906;8.404;2023-03-31T10:10:52;4.40;;;1.93;;
1410;SDS011;700;51.906;8.404;2023-03-31T10:16:02;2.50;;;1.53;;
1410;SDS011;700;51.906;8.404;2023-03-31T10:21:23;6.47;;;1.93;;
1410;SDS011;700;51.906;8.404;2023-03-31T10:26:26;4.40;;;1.50;;
1410;SDS011;700;51.906;8.404;2023-03-31T10:31:33;5.33;;;2.00;;
1410;SDS011;700;51.906;8.404;2023-03-31T10:36:38;3.00;;;1.20;;
1410;SDS011;700;51.906;8.404;2023-03-31T10:41:50;3.30;;;1.83;;
1410;SDS011;700;51.906;8.404;2023-03-31T10:46:51;2.33;;;1.90;;
1410;SDS011;700;51.906;8.404;2023-03-31T10:51:56;4.10;;;2.60;;
1410;SDS011;700;51.906;8.404;2023-03-31T10:57:00;4.07;;;1.80;;
1410;SDS011;700;51.906;8.404;2023-03-31T11:07:30;3.00;;;1.57;;
1410;SDS011;700;51.906;8.404;2023-03-31T11:12:43;3.73;;;1.57;;
1410;SDS011;700;51.906;8.404;2023-03-31T11:23:51;3.13;;;1.40;;
1410;SDS011;700;51.906;8.404;2023-03-31T11:34:07;4.67;;;1.63;;
1410;SDS011;700;51.906;8.404;2023-03-31T11:44:55;16.60;;;2.80;;
1410;SDS011;700;51.906;8.404;2023-03-31T11:50:03;7.00;;;2.60;;
1410;SDS011;700;51.906;8.404;2023-03-31T11:55:15;5.40;;;2.20;;
1410;SDS011;700;51.906;8.404;2023-03-31T12:00:21;3.43;;;1.93;;
1410;SDS011;700;51.906;8.404;2023-03-31T12:05:25;6.00;;;2.00;;
1410;SDS011;700;51.906;8.404;2023-03-31T12:20:45;5.63;;;2.43;;
1410;SDS011;700;51.906;8.404;2023-03-31T12:31:25;4.77;;;2.13;;
1410;SDS011;700;51.906;8.404;2023-03-31T12:36:40;3.30;;;1.57;;
1410;SDS011;700;51.906;8.404;2023-03-31T13:19:33;6.60;;;2.60;;
1410;SDS011;700;51.906;8.404;2023-03-31T13:24:35;5.07;;;1.47;;
1410;SDS011;700;51.906;8.404;2023-03-31T13:29:39;7.43;;;1.80;;
1410;SDS011;700;51.906;8.404;2023-03-31T13:51:19;5.03;;;1.20;;
1410;SDS011;700;51.906;8.404;2023-03-31T14:07:49;3.80;;;1.70;;
1410;SDS011;700;51.906;8.404;2023-03-31T14:13:14;4.87;;;2.10;;
1410;SDS011;700;51.906;8.404;2023-03-31T14:18:29;4.33;;;1.03;;
1410;SDS011;700;51.906;8.404;2023-03-31T14:23:39;4.63;;;1.80;;
1410;SDS011;700;51.906;8.404;2023-03-31T14:28:58;3.73;;;1.57;;
1410;SDS011;700;51.906;8.404;2023-03-31T14:39:21;3.97;;;1.80;;
1410;SDS011;700;51.906;8.404;2023-03-31T14:44:25;6.07;;;2.00;;
1410;SDS011;700;51.906;8.404;2023-03-31T14:49:33;5.90;;;1.40;;
1410;SDS011;700;51.906;8.404;2023-03-31T14:54:35;3.90;;;1.80;;
1410;SDS011;700;51.906;8.404;2023-03-31T14:59:40;5.63;;;2.53;;
1410;SDS011;700;51.906;8.404;2023-03-31T15:04:45;4.73;;;1.63;;
1410;SDS011;700;51.906;8.404;2023-03-31T15:09:48;6.20;;;2.13;;
1410;SDS011;700;51.906;8.404;2023-03-31T15:14:53;4.40;;;2.10;;
1410;SDS011;700;51.906;8.404;2023-03-31T15:19:57;10.20;;;2.83;;
1410;SDS011;700;51.906;8.404;2023-03-31T15:25:01;6.30;;;2.27;;
1410;SDS011;700;51.906;8.404;2023-03-31T15:30:05;6.07;;;2.13;;
1410;SDS011;700;51.906;8.404;2023-03-31T15:35:23;10.90;;;2.40;;
1410;SDS011;700;51.906;8.404;2023-03-31T15:40:37;6.00;;;2.20;;
1410;SDS011;700;51.906;8.404;2023-03-31T15:45:47;6.70;;;3.20;;
1410;SDS011;700;51.906;8.404;2023-03-31T15:50:48;8.27;;;3.27;;
1410;SDS011;700;51.906;8.404;2023-03-31T15:55:52;7.47;;;2.87;;
1410;SDS011;700;51.906;8.404;2023-03-31T16:01:02;4.00;;;1.70;;
1410;SDS011;700;51.906;8.404;2023-03-31T16:06:14;4.33;;;1.93;;
1410;SDS011;700;51.906;8.404;2023-03-31T16:11:19;3.13;;;1.67;;
1410;SDS011;700;51.906;8.404;2023-03-31T16:16:27;7.30;;;2.37;;
1410;SDS011;700;51.906;8.404;2023-03-31T16:21:32;5.30;;;2.13;;
1410;SDS011;700;51.906;8.404;2023-03-31T16:26:39;5.87;;;3.43;;
1410;SDS011;700;51.906;8.404;2023-03-31T16:31:40;7.60;;;2.80;;
1410;SDS011;700;51.906;8.404;2023-03-31T16:36:43;7.07;;;2.43;;
1410;SDS011;700;51.906;8.404;2023-03-31T16:41:44;5.67;;;3.20;;
1410;SDS011;700;51.906;8.404;2023-03-31T16:46:45;5.10;;;3.50;;
1410;SDS011;700;51.906;8.404;2023-03-31T16:51:45;5.77;;;3.00;;
1410;SDS011;700;51.906;8.404;2023-03-31T16:56:46;7.40;;;2.70;;
1410;SDS011;700;51.906;8.404;2023-03-31T17:01:47;6.70;;;1.93;;
1410;SDS011;700;51.906;8.404;2023-03-31T17:06:51;3.93;;;2.03;;
1410;SDS011;700;51.906;8.404;2023-03-31T17:11:54;3.43;;;1.93;;
1410;SDS011;700;51.906;8.404;2023-03-31T17:16:57;5.70;;;2.40;;
1410;SDS011;700;51.906;8.404;2023-03-31T17:21:57;6.00;;;1.73;;
1410;SDS011;700;51.906;8.404;2023-03-31T17:27:00;4.80;;;2.47;;
1410;SDS011;700;51.906;8.404;2023-03-31T17:32:01;5.27;;;2.60;;
1410;SDS011;700;51.906;8.404;2023-03-31T17:37:02;5.00;;;2.40;;
1410;SDS011;700;51.906;8.404;2023-03-31T17:42:08;3.53;;;1.70;;
1410;SDS011;700;51.906;8.404;2023-03-31T17:47:09;4.43;;;2.43;;
1410;SDS011;700;51.906;8.404;2023-03-31T17:52:10;4.33;;;2.17;;
1410;SDS011;700;51.906;8.404;2023-03-31T17:57:11;4.33;;;1.83;;
1410;SDS011;700;51.906;8.404;2023-03-31T18:02:14;3.60;;;1.37;;
1410;SDS011;700;51.906;8.404;2023-03-31T18:07:17;4.30;;;1.77;;
1410;SDS011;700;51.906;8.404;2023-03-31T18:12:18;3.30;;;1.07;;
1410;SDS011;700;51.906;8.404;2023-03-31T18:17:21;3.40;;;1.70;;
1410;SDS011;700;51.906;8.404;2023-03-31T18:22:22;4.33;;;1.33;;
1410;SDS011;700;51.906;8.404;2023-03-31T18:27:23;3.80;;;1.73;;
1410;SDS011;700;51.906;8.404;2023-03-31T18:32:24;5.50;;;1.73;;
1410;SDS011;700;51.906;8.404;2023-03-31T18:37:24;4.50;;;1.17;;
1410;SDS011;700;51.906;8.404;2023-03-31T18:42:26;5.60;;;1.40;;
1410;SDS011;700;51.906;8.404;2023-03-31T18:47:29;4.00;;;1.70;;
1410;SDS011;700;51.906;8.404;2023-03-31T18:52:29;4.87;;;1.80;;
1410;SDS011;700;51.906;8.404;2023-03-31T18:57:30;2.63;;;1.33;;
1410;SDS011;700;51.906;8.404;2023-03-31T19:02:31;2.43;;;1.40;;
1410;SDS011;700;51.906;8.404;2023-03-31T19:07:34;4.03;;;2.00;;
1410;SDS011;700;51.906;8.404;2023-03-31T19:12:35;4.40;;;2.07;;
1410;SDS011;700;51.906;8.404;2023-03-31T19:17:38;5.57;;;1.77;;
1410;SDS011;700;51.906;8.404;2023-03-31T19:22:39;2.53;;;1.60;;
1410;SDS011;700;51.906;8.404;2023-03-31T19:27:42;3.27;;;1.67;;
1410;SDS011;700;51.906;8.404;2023-03-31T19:32:46;4.23;;;1.97;;
1410;SDS011;700;51.906;8.404;2023-03-31T19:37:48;4.50;;;1.30;;
1410;SDS011;700;51.906;8.404;2023-03-31T19:42:50;4.03;;;2.00;;
1410;SDS011;700;51.906;8.404;2023-03-31T19:47:52;4.77;;;1.80;;
1410;SDS011;700;51.906;8.404;2023-03-31T19:52:53;3.80;;;2.10;;
1410;SDS011;700;51.906;8.404;2023-03-31T19:57:54;4.17;;;1.87;;
1410;SDS011;700;51.906;8.404;2023-03-31T20:02:55;3.03;;;1.47;;
1410;SDS011;700;51.906;8.404;2023-03-31T20:07:55;2.97;;;1.70;;
1410;SDS011;700;51.906;8.404;2023-03-31T20:12:56;3.67;;;1.90;;
1410;SDS011;700;51.906;8.404;2023-03-31T20:17:59;4.60;;;2.10;;
1410;SDS011;700;51.906;8.404;2023-03-31T20:23:00;6.30;;;2.47;;
1410;SDS011;700;51.906;8.404;2023-03-31T20:28:00;5.53;;;2.17;;
1410;SDS011;700;51.906;8.404;2023-03-31T20:33:03;3.00;;;1.70;;
1410;SDS011;700;51.906;8.404;2023-03-31T20:38:06;4.97;;;2.47;;
1410;SDS011;700;51.906;8.404;2023-03-31T20:43:12;3.33;;;2.10;;
1410;SDS011;700;51.906;8.404;2023-03-31T20:48:12;7.40;;;2.67;;
1410;SDS011;700;51.906;8.404;2023-03-31T20:53:16;4.97;;;2.43;;
1410;SDS011;700;51.906;8.404;2023-03-31T20:58:17;5.80;;;2.57;;
1410;SDS011;700;51.906;8.404;2023-03-31T21:03:18;4.37;;;2.73;;
1410;SDS011;700;51.906;8.404;2023-03-31T21:08:21;4.70;;;1.87;;
1410;SDS011;700;51.906;8.404;2023-03-31T21:13:22;5.10;;;1.70;;
1410;SDS011;700;51.906;8.404;2023-03-31T21:18:23;5.70;;;3.00;;
1410;SDS011;700;51.906;8.404;2023-03-31T21:23:25;6.60;;;2.40;;
1410;SDS011;700;51.906;8.404;2023-03-31T21:28:30;4.80;;;2.40;;
1410;SDS011;700;51.906;8.404;2023-03-31T21:33:39;6.70;;;2.60;;
1410;SDS011;700;51.906;8.404;2023-03-31T21:38:41;4.63;;;2.43;;
1410;SDS011;700;51.906;8.404;2023-03-31T21:43:42;5.23;;;2.07;;
1410;SDS011;700;51.906;8.404;2023-03-31T21:48:43;7.10;;;2.43;;
1410;SDS011;700;51.906;8.404;2023-03-31T21:53:49;4.47;;;3.00;;
1410;SDS011;700;51.906;8.404;2023-03-31T21:58:56;5.57;;;2.00;;
1410;SDS011;700;51.906;8.404;2023-03-31T22:03:57;3.27;;;1.70;;
1410;SDS011;700;51.906;8.404;2023-03-31T22:09:00;5.37;;;1.80;;
1410;SDS011;700;51.906;8.404;2023-03-31T22:14:00;3.07;;;1.43;;
1410;SDS011;700;51.906;8.404;2023-03-31T22:19:04;9.33;;;2.43;;
1410;SDS011;700;51.906;8.404;2023-03-31T22:24:07;4.00;;;1.77;;
1410;SDS011;700;51.906;8.404;2023-03-31T22:29:13;3.57;;;1.33;;
1410;SDS011;700;51.906;8.404;2023-03-31T22:34:14;2.47;;;1.13;;
1410;SDS011;700;51.906;8.404;2023-03-31T22:39:17;5.93;;;1.20;;
1410;SDS011;700;51.906;8.404;2023-03-31T22:44:18;3.30;;;1.20;;
1410;SDS011;700;51.906;8.404;2023-03-31T22:49:19;3.30;;;1.60;;
1410;SDS011;700;51.906;8.404;2023-03-31T22:54:20;6.63;;;1.40;;
1410;SDS011;700;51.906;8.404;2023-03-31T22:59:20;2.27;;;1.30;;
1410;SDS011;700;51.906;8.404;2023-03-31T23:04:21;3.13;;;1.30;;
1410;SDS011;700;51.906;8.404;2023-03-31T23:09:22;3.80;;;1.40;;
1410;SDS011;700;51.906;8.404;2023-03-31T23:14:23;2.10;;;1.30;;
1410;SDS011;700;51.906;8.404;2023-03-31T23:19:29;5.13;;;1.03;;
1410;SDS011;700;51.906;8.404;2023-03-31T23:24:29;5.10;;;1.63;;
1410;SDS011;700;51.906;8.404;2023-03-31T23:29:32;4.83;;;1.53;;
1410;SDS011;700;51.906;8.404;2023-03-31T23:34:38;2.50;;;1.40;;
1410;SDS011;700;51.906;8.404;2023-03-31T23:39:42;6.33;;;1.27;;
1410;SDS011;700;51.906;8.404;2023-03-31T23:44:45;3.30;;;1.20;;
1410;SDS011;700;51.906;8.404;2023-03-31T23:49:46;2.43;;;1.10;;
1410;SDS011;700;51.906;8.404;2023-03-31T23:54:49;7.03;;;1.63;;
1410;SDS011;700;51.906;8.404;2023-03-31T23:59:50;3.50;;;1.27;;
